createdAt,value
2023-03-19T00:00:17.816Z,100723.63
2023-03-19T00:04:21.345Z,100725.53
2023-03-19T00:08:24.352Z,100732.59
2023-03-19T00:12:28.676Z,100746.56
2023-03-19T00:16:32.536Z,100761.78
2023-03-19T00:20:37.278Z,100766.41
2023-03-19T00:24:40.269Z,100760.59
2023-03-19T00:28:44.892Z,100756.97
2023-03-19T00:32:48.250Z,100759.19
2023-03-19T00:36:51.972Z,100765.25
2023-03-19T00:40:55.319Z,100757.69
2023-03-19T00:44:59.735Z,100767.22
2023-03-19T00:49:02.821Z,100765.13
2023-03-19T00:53:06.194Z,100760.84
2023-03-19T00:57:09.521Z,100755.78
2023-03-19T01:01:16.420Z,100757.19
2023-03-19T01:05:20.469Z,100758.38
2023-03-19T01:09:23.438Z,100749.50
2023-03-19T01:13:26.362Z,100745.81
2023-03-19T01:17:30.812Z,100745.47
2023-03-19T01:21:35.548Z,100737.97
2023-03-19T01:25:40.557Z,100734.06
2023-03-19T01:29:44.189Z,100726.22
2023-03-19T01:33:54.940Z,100723.59
2023-03-19T01:38:17.914Z,100729.88
2023-03-19T01:42:23.624Z,100732.34
2023-03-19T01:46:50.909Z,100729.41
2023-03-19T01:51:39.493Z,100721.81
2023-03-19T01:55:50.023Z,100726.19
2023-03-19T02:00:08.084Z,100725.13
2023-03-19T02:04:20.623Z,100731.63
2023-03-19T02:08:25.771Z,100729.63
2023-03-19T02:12:29.190Z,100718.66
2023-03-19T02:16:32.350Z,100716.41
2023-03-19T02:20:43.005Z,100710.88
2023-03-19T02:24:54.491Z,100704.28
2023-03-19T02:29:00.165Z,100700.38
2023-03-19T02:33:12.913Z,100708.91
2023-03-19T02:37:19.600Z,100704.28
2023-03-19T02:41:22.964Z,100704.75
2023-03-19T02:45:30.577Z,100710.94
2023-03-19T02:49:33.405Z,100713.88
2023-03-19T02:53:36.846Z,100720.38
2023-03-19T02:57:40.199Z,100729.03
2023-03-19T03:01:44.513Z,100724.41
2023-03-19T03:05:47.718Z,100726.31
2023-03-19T03:09:51.168Z,100737.19
2023-03-19T03:13:54.153Z,100729.84
2023-03-19T03:17:58.597Z,100733.41
2023-03-19T03:22:01.767Z,100738.25
2023-03-19T03:26:06.724Z,100740.84
2023-03-19T03:30:11.871Z,100745.47
2023-03-19T03:34:16.257Z,100743.56
2023-03-19T03:38:19.240Z,100747.94
2023-03-19T03:42:22.885Z,100750.41
2023-03-19T03:46:26.476Z,100752.91
2023-03-19T03:50:30.847Z,100744.84
2023-03-19T03:54:39.205Z,100752.53
2023-03-19T03:58:42.261Z,100747.44
2023-03-19T04:02:45.862Z,100759.97
2023-03-19T04:06:53.159Z,100762.69
2023-03-19T04:11:08.978Z,100757.03
2023-03-19T04:15:13.632Z,100750.91
2023-03-19T04:19:19.206Z,100753.97
2023-03-19T04:23:23.851Z,100751.03
2023-03-19T04:27:27.015Z,100752.56
2023-03-19T04:31:30.494Z,100744.28
2023-03-19T04:35:35.144Z,100756.81
2023-03-19T04:39:39.719Z,100764.13
2023-03-19T04:43:42.881Z,100755.97
2023-03-19T04:47:46.672Z,100769.56
2023-03-19T04:51:50.036Z,100770.06
2023-03-19T04:55:54.366Z,100774.44
2023-03-19T04:59:57.178Z,100780.94
2023-03-19T05:04:00.636Z,100770.91
2023-03-19T05:08:04.430Z,100779.63
2023-03-19T05:12:09.773Z,100779.16
2023-03-19T05:16:18.782Z,100775.63
2023-03-19T05:20:21.749Z,100781.28
2023-03-19T05:24:30.820Z,100786.25
2023-03-19T05:28:37.433Z,100782.22
2023-03-19T05:32:41.025Z,100778.44
2023-03-19T05:36:50.133Z,100777.84
2023-03-19T05:40:55.153Z,100780.31
2023-03-19T05:45:06.789Z,100786.38
2023-03-19T05:49:22.100Z,100786.38
2023-03-19T05:53:25.143Z,100795.25
2023-03-19T05:57:54.088Z,100798.31
2023-03-19T06:02:02.704Z,100809.19
2023-03-19T06:06:08.562Z,100818.38
2023-03-19T06:10:17.582Z,100817.94
2023-03-19T06:14:24.501Z,100828.31
2023-03-19T06:18:49.517Z,100828.06
2023-03-19T06:22:52.998Z,100816.63
2023-03-19T06:26:58.143Z,100816.63
2023-03-19T06:31:02.079Z,100832.69
2023-03-19T06:35:29.464Z,100835.78
2023-03-19T06:39:33.090Z,100833.06
2023-03-19T06:43:37.191Z,100834.25
2023-03-19T06:47:41.963Z,100842.28
2023-03-19T06:51:46.784Z,100838.25
2023-03-19T06:55:49.790Z,100853.25
2023-03-19T06:59:52.781Z,100851.59
2023-03-19T07:03:57.273Z,100867.44
2023-03-19T07:08:01.914Z,100858.22
2023-03-19T07:12:05.609Z,100860.69
2023-03-19T07:16:09.959Z,100869.19
2023-03-19T07:20:14.174Z,100879.03
2023-03-19T07:24:18.287Z,100874.41
2023-03-19T07:28:21.812Z,100882.66
2023-03-19T07:32:24.953Z,100893.66
2023-03-19T07:36:28.117Z,100885.94
2023-03-19T07:40:32.806Z,100891.63
2023-03-19T07:44:35.966Z,100896.44
2023-03-19T07:48:38.838Z,100900.19
2023-03-19T07:52:41.898Z,100905.25
2023-03-19T07:56:46.197Z,100897.91
2023-03-19T08:00:49.145Z,100905.84
2023-03-19T08:04:54.448Z,100907.97
2023-03-19T08:08:57.581Z,100906.34
2023-03-19T08:13:01.955Z,100917.59
2023-03-19T08:17:05.036Z,100920.38
2023-03-19T08:21:08.342Z,100922.28
2023-03-19T08:25:12.133Z,100914.19
2023-03-19T08:29:18.890Z,100929.44
2023-03-19T08:33:22.366Z,100933.44
2023-03-19T08:37:25.283Z,100931.63
2023-03-19T08:41:28.265Z,100939.66
2023-03-19T08:45:32.684Z,100936.94
2023-03-19T08:49:35.952Z,100951.41
2023-03-19T08:53:39.924Z,100945.25
2023-03-19T08:57:43.106Z,100957.44
2023-03-19T09:01:52.054Z,100952.00
2023-03-19T09:05:54.838Z,100965.25
2023-03-19T09:09:57.898Z,100971.84
2023-03-19T09:14:00.815Z,100971.03
2023-03-19T09:18:05.636Z,100982.28
2023-03-19T09:22:08.758Z,100979.97
2023-03-19T09:26:11.756Z,100975.91
2023-03-19T09:30:15.247Z,100974.47
2023-03-19T09:34:19.708Z,100984.13
2023-03-19T09:38:23.178Z,100987.03
2023-03-19T09:42:46.121Z,100983.34
2023-03-19T09:46:55.684Z,100991.41
2023-03-19T09:51:02.857Z,100995.03
2023-03-19T09:55:15.530Z,100995.06
2023-03-19T09:59:18.421Z,100990.44
2023-03-19T10:03:41.228Z,101004.34
2023-03-19T10:07:59.250Z,101008.19
2023-03-19T10:12:21.433Z,101003.44
2023-03-19T10:16:28.087Z,101015.72
2023-03-19T10:20:37.755Z,101006.31
2023-03-19T10:24:44.405Z,101011.97
2023-03-19T10:28:57.447Z,101018.34
2023-03-19T10:33:09.164Z,101007.25
2023-03-19T10:37:16.692Z,101012.75
2023-03-19T10:41:34.129Z,101000.69
2023-03-19T10:45:39.313Z,101011.81
2023-03-19T10:49:43.901Z,101019.63
2023-03-19T10:53:46.939Z,101018.84
2023-03-19T10:57:57.258Z,101025.72
2023-03-19T11:02:03.607Z,101024.94
2023-03-19T11:06:16.024Z,101022.53
2023-03-19T11:10:21.689Z,101024.72
2023-03-19T11:14:33.832Z,101026.03
2023-03-19T11:18:39.852Z,101031.72
2023-03-19T11:22:43.382Z,101024.56
2023-03-19T11:26:55.977Z,101030.41
2023-03-19T11:31:08.422Z,101026.34
2023-03-19T11:35:16.417Z,101010.47
2023-03-19T11:39:28.757Z,101022.81
2023-03-19T11:44:00.580Z,101013.47
2023-03-19T11:52:39.589Z,101014.16
2023-03-19T11:56:47.124Z,101007.47
2023-03-19T12:00:52.369Z,101002.97
2023-03-19T12:05:21.081Z,101005.41
2023-03-19T12:09:34.411Z,101005.91
2023-03-19T12:13:53.217Z,101004.25
2023-03-19T12:18:05.761Z,101002.72
2023-03-19T12:22:19.810Z,101003.28
2023-03-19T12:26:34.436Z,101001.97
2023-03-19T12:30:42.666Z,101004.09
2023-03-19T12:34:51.113Z,101000.78
2023-03-19T12:38:59.067Z,101011.44
2023-03-19T12:43:15.081Z,100998.13
2023-03-19T12:47:22.484Z,100993.75
2023-03-19T12:51:29.779Z,101001.56
2023-03-19T12:55:42.919Z,101000.25
2023-03-19T12:59:54.229Z,101001.78
2023-03-19T13:04:03.292Z,101003.88
2023-03-19T13:08:13.913Z,101008.50
2023-03-19T13:12:23.735Z,101016.38
2023-03-19T13:16:39.701Z,101013.63
2023-03-19T13:20:58.512Z,101009.19
2023-03-19T13:25:02.643Z,100997.97
2023-03-19T13:29:14.604Z,100996.88
2023-03-19T13:33:23.094Z,100991.00
2023-03-19T13:37:27.787Z,100983.69
2023-03-19T13:41:49.701Z,100989.78
2023-03-19T13:45:54.078Z,100989.81
2023-03-19T13:50:21.498Z,100998.13
2023-03-19T13:54:34.646Z,100987.97
2023-03-19T13:58:52.034Z,100988.88
2023-03-19T14:02:55.164Z,100991.66
2023-03-19T14:07:10.509Z,100994.88
2023-03-19T14:11:24.576Z,100983.69
2023-03-19T14:15:30.599Z,100987.28
2023-03-19T14:19:41.905Z,101000.16
2023-03-19T14:23:54.980Z,101014.72
2023-03-19T14:28:02.208Z,101007.94
2023-03-19T14:32:10.538Z,101006.56
2023-03-19T14:36:18.593Z,101014.91
2023-03-19T14:40:25.415Z,101023.25
2023-03-19T14:44:46.376Z,101019.19
2023-03-19T14:49:28.923Z,101011.25
2023-03-19T14:53:39.229Z,101023.94
2023-03-19T14:57:43.790Z,101018.72
2023-03-19T15:01:53.469Z,101015.13
2023-03-19T15:06:00.276Z,101017.25
2023-03-19T15:10:06.527Z,101012.28
2023-03-19T15:14:37.303Z,101016.19
2023-03-19T15:18:40.701Z,101016.50
2023-03-19T15:22:44.364Z,101014.06
2023-03-19T15:26:49.026Z,101022.81
2023-03-19T15:31:20.292Z,101023.34
2023-03-19T15:35:32.027Z,101028.84
2023-03-19T15:39:38.070Z,101045.00
2023-03-19T15:43:43.438Z,101039.75
2023-03-19T15:47:51.198Z,101046.06
2023-03-19T15:51:58.461Z,101042.97
2023-03-19T15:56:03.895Z,101044.03
2023-03-19T16:00:10.498Z,101046.16
2023-03-19T16:04:25.513Z,101056.22
2023-03-19T16:08:29.878Z,101066.72
2023-03-19T16:12:39.855Z,101069.00
2023-03-19T16:16:43.347Z,101068.63
2023-03-19T16:21:11.393Z,101063.94
2023-03-19T16:25:31.874Z,101063.88
2023-03-19T16:29:39.385Z,101074.28
2023-03-19T16:33:43.196Z,101078.69
2023-03-19T16:37:48.813Z,101085.03
2023-03-19T16:42:17.409Z,101093.25
2023-03-19T16:46:28.944Z,101107.66
2023-03-19T16:50:34.890Z,101100.88
2023-03-19T16:54:39.341Z,101115.34
2023-03-19T16:58:44.497Z,101112.84
2023-03-19T17:02:47.586Z,101113.88
2023-03-19T17:06:51.445Z,101129.03
2023-03-19T17:10:56.738Z,101130.34
2023-03-19T17:15:17.704Z,101137.06
2023-03-19T17:19:36.059Z,101150.25
2023-03-19T17:23:39.241Z,101152.06
2023-03-19T17:27:43.476Z,101159.94
2023-03-19T17:31:46.697Z,101169.03
2023-03-19T17:35:50.081Z,101173.63
2023-03-19T17:39:53.008Z,101187.94
2023-03-19T17:43:57.453Z,101187.13
2023-03-19T17:48:00.619Z,101205.47
2023-03-19T17:52:04.950Z,101211.25
2023-03-19T17:56:16.548Z,101221.66
2023-03-19T18:00:23.848Z,101234.94
2023-03-19T18:04:27.052Z,101243.72
2023-03-19T18:08:30.563Z,101250.38
2023-03-19T18:12:34.527Z,101250.50
2023-03-19T18:16:39.001Z,101260.78
2023-03-19T18:20:43.031Z,101256.66
2023-03-19T18:24:46.589Z,101258.19
2023-03-19T18:28:49.627Z,101270.38
2023-03-19T18:32:59.345Z,101277.44
2023-03-19T18:37:03.042Z,101287.75
2023-03-19T18:41:06.247Z,101291.06
2023-03-19T18:45:37.597Z,101298.84
2023-03-19T18:49:42.305Z,101305.66
2023-03-19T18:53:45.996Z,101301.63
2023-03-19T18:57:54.182Z,101304.59
2023-03-19T19:02:01.717Z,101312.13
2023-03-19T19:06:07.028Z,101316.16
2023-03-19T19:10:11.228Z,101308.22
2023-03-19T19:14:21.814Z,101324.09
2023-03-19T19:18:28.243Z,101321.00
2023-03-19T19:22:34.072Z,101334.72
2023-03-19T19:26:37.483Z,101330.78
2023-03-19T19:30:41.556Z,101339.41
2023-03-19T19:34:44.475Z,101344.69
2023-03-19T19:38:51.878Z,101353.31
2023-03-19T19:42:55.239Z,101360.50
2023-03-19T19:47:00.893Z,101369.94
2023-03-19T19:51:04.730Z,101364.13
2023-03-19T19:55:10.729Z,101375.47
2023-03-19T19:59:16.056Z,101375.59
2023-03-19T20:03:24.277Z,101387.44
2023-03-19T20:07:28.273Z,101383.06
2023-03-19T20:11:32.754Z,101384.53
2023-03-19T20:15:36.862Z,101379.28
2023-03-19T20:19:40.561Z,101383.06
2023-03-19T20:23:45.442Z,101394.25
2023-03-19T20:27:54.310Z,101396.38
2023-03-19T20:31:58.380Z,101393.19
2023-03-19T20:36:03.223Z,101387.97
2023-03-19T20:40:07.687Z,101396.97
2023-03-19T20:44:21.541Z,101399.44
2023-03-19T20:48:27.264Z,101409.50
2023-03-19T20:52:32.078Z,101400.91
2023-03-19T20:56:38.111Z,101400.69
2023-03-19T21:00:43.070Z,101382.47
2023-03-19T21:04:47.534Z,101377.50
2023-03-19T21:08:53.374Z,101388.97
2023-03-19T21:12:56.721Z,101400.69
2023-03-19T21:17:01.961Z,101403.41
2023-03-19T21:21:05.274Z,101397.31
2023-03-19T21:25:19.382Z,101410.44
2023-03-19T21:29:29.805Z,101401.44
2023-03-19T21:33:36.141Z,101411.09
2023-03-19T21:37:40.488Z,101413.00
2023-03-19T21:41:44.762Z,101415.94
2023-03-19T21:45:50.197Z,101415.72
2023-03-19T21:49:54.905Z,101413.97
2023-03-19T21:53:58.495Z,101411.25
2023-03-19T21:58:01.579Z,101416.09
2023-03-19T22:02:04.586Z,101401.88
2023-03-19T22:06:09.728Z,101407.53
2023-03-19T22:10:13.751Z,101407.31
2023-03-19T22:14:20.648Z,101404.16
2023-03-19T22:18:23.829Z,101413.38
2023-03-19T22:22:28.247Z,101406.66
2023-03-19T22:26:33.681Z,101419.25
2023-03-19T22:30:38.873Z,101417.06
2023-03-19T22:34:41.776Z,101415.88
2023-03-19T22:38:48.660Z,101427.66
2023-03-19T22:42:51.974Z,101428.50
2023-03-19T22:46:56.456Z,101431.81
2023-03-19T22:50:59.555Z,101429.09
2023-03-19T22:55:05.566Z,101432.47
2023-03-19T22:59:10.199Z,101428.50
2023-03-19T23:03:18.844Z,101436.44
2023-03-19T23:07:21.891Z,101437.63
2023-03-19T23:11:27.204Z,101446.63
2023-03-19T23:15:31.854Z,101451.91
2023-03-19T23:19:36.602Z,101453.56
2023-03-19T23:23:39.405Z,101452.97
2023-03-19T23:27:46.045Z,101455.88
2023-03-19T23:31:49.238Z,101455.69
2023-03-19T23:35:54.012Z,101458.56
2023-03-19T23:39:58.771Z,101459.84
2023-03-19T23:44:08.639Z,101455.22
2023-03-19T23:48:15.916Z,101471.31
2023-03-19T23:52:18.871Z,101465.06
2023-03-19T23:56:24.513Z,101464.88
